sensor_id;sensor_type;location;lat;lon;timestamp;P1;durP1;ratioP1;P2;durP2;ratioP2
6436;SDS011;3251;53.550;9.918;2023-05-08T05:44:58;6.27;;;5.77;;
6436;SDS011;3251;53.550;9.918;2023-05-08T05:47:26;5.10;;;4.63;;
6436;SDS011;3251;53.550;9.918;2023-05-08T05:49:52;10.60;;;5.30;;
6436;SDS011;3251;53.550;9.918;2023-05-08T05:52:19;6.50;;;5.10;;
6436;SDS011;3251;53.550;9.918;2023-05-08T05:54:45;4.67;;;4.27;;
6436;SDS011;3251;53.550;9.918;2023-05-08T05:57:12;5.50;;;5.10;;
6436;SDS011;3251;53.550;9.918;2023-05-08T05:59:38;6.53;;;5.83;;
6436;SDS011;3251;53.550;9.918;2023-05-08T06:02:06;4.17;;;3.97;;
6436;SDS011;3251;53.550;9.918;2023-05-08T06:04:34;14.67;;;6.13;;
6436;SDS011;3251;53.550;9.918;2023-05-08T06:07:00;15.13;;;5.20;;
6436;SDS011;3251;53.550;9.918;2023-05-08T06:09:26;5.90;;;5.27;;
6436;SDS011;3251;53.550;9.918;2023-05-08T06:11:53;6.03;;;5.43;;
6436;SDS011;3251;53.550;9.918;2023-05-08T06:14:19;6.13;;;5.40;;
6436;SDS011;3251;53.550;9.918;2023-05-08T06:16:45;5.13;;;4.67;;
6436;SDS011;3251;53.550;9.918;2023-05-08T06:19:11;9.03;;;5.07;;
6436;SDS011;3251;53.550;9.918;2023-05-08T06:21:37;7.53;;;6.83;;
6436;SDS011;3251;53.550;9.918;2023-05-08T06:24:04;18.77;;;11.60;;
6436;SDS011;3251;53.550;9.918;2023-05-08T06:26:31;9.63;;;5.00;;
6436;SDS011;3251;53.550;9.918;2023-05-08T06:28:57;5.37;;;4.87;;
6436;SDS011;3251;53.550;9.918;2023-05-08T06:31:23;9.03;;;6.17;;
6436;SDS011;3251;53.550;9.918;2023-05-08T06:33:49;16.20;;;11.33;;
6436;SDS011;3251;53.550;9.918;2023-05-08T06:36:15;5.90;;;5.00;;
6436;SDS011;3251;53.550;9.918;2023-05-08T06:38:41;6.17;;;5.40;;
6436;SDS011;3251;53.550;9.918;2023-05-08T06:41:07;12.00;;;5.63;;
6436;SDS011;3251;53.550;9.918;2023-05-08T06:43:33;5.93;;;5.53;;
6436;SDS011;3251;53.550;9.918;2023-05-08T06:45:59;6.20;;;5.60;;
6436;SDS011;3251;53.550;9.918;2023-05-08T06:48:26;5.47;;;5.07;;
6436;SDS011;3251;53.550;9.918;2023-05-08T06:50:53;9.40;;;5.10;;
6436;SDS011;3251;53.550;9.918;2023-05-08T06:53:20;5.23;;;4.80;;
6436;SDS011;3251;53.550;9.918;2023-05-08T06:55:46;5.83;;;5.00;;
6436;SDS011;3251;53.550;9.918;2023-05-08T06:58:12;5.20;;;4.80;;
6436;SDS011;3251;53.550;9.918;2023-05-08T07:00:38;7.40;;;6.30;;
6436;SDS011;3251;53.550;9.918;2023-05-08T07:03:04;6.30;;;5.70;;
6436;SDS011;3251;53.550;9.918;2023-05-08T07:05:30;5.87;;;5.33;;
6436;SDS011;3251;53.550;9.918;2023-05-08T07:07:57;6.20;;;4.93;;
6436;SDS011;3251;53.550;9.918;2023-05-08T07:10:23;12.80;;;5.63;;
6436;SDS011;3251;53.550;9.918;2023-05-08T07:12:49;5.77;;;5.27;;
6436;SDS011;3251;53.550;9.918;2023-05-08T07:15:15;5.87;;;5.47;;
6436;SDS011;3251;53.550;9.918;2023-05-08T07:17:41;8.27;;;6.10;;
6436;SDS011;3251;53.550;9.918;2023-05-08T07:20:07;5.70;;;5.20;;
6436;SDS011;3251;53.550;9.918;2023-05-08T07:22:33;13.43;;;7.70;;
6436;SDS011;3251;53.550;9.918;2023-05-08T07:25:00;7.40;;;6.80;;
6436;SDS011;3251;53.550;9.918;2023-05-08T07:27:26;7.93;;;6.50;;
6436;SDS011;3251;53.550;9.918;2023-05-08T07:29:52;6.30;;;5.57;;
6436;SDS011;3251;53.550;9.918;2023-05-08T07:32:18;8.93;;;6.40;;
6436;SDS011;3251;53.550;9.918;2023-05-08T07:34:44;11.43;;;7.50;;
6436;SDS011;3251;53.550;9.918;2023-05-08T07:37:10;7.07;;;5.50;;
6436;SDS011;3251;53.550;9.918;2023-05-08T07:39:37;6.50;;;6.00;;
6436;SDS011;3251;53.550;9.918;2023-05-08T07:42:03;6.23;;;5.63;;
6436;SDS011;3251;53.550;9.918;2023-05-08T07:44:30;9.30;;;6.20;;
6436;SDS011;3251;53.550;9.918;2023-05-08T07:46:59;7.73;;;6.90;;
6436;SDS011;3251;53.550;9.918;2023-05-08T07:49:25;6.87;;;6.23;;
6436;SDS011;3251;53.550;9.918;2023-05-08T07:51:51;7.23;;;5.80;;
6436;SDS011;3251;53.550;9.918;2023-05-08T07:54:17;7.53;;;5.63;;
6436;SDS011;3251;53.550;9.918;2023-05-08T07:56:43;10.00;;;7.33;;
6436;SDS011;3251;53.550;9.918;2023-05-08T07:59:09;7.70;;;6.00;;
6436;SDS011;3251;53.550;9.918;2023-05-08T08:01:35;6.00;;;5.40;;
6436;SDS011;3251;53.550;9.918;2023-05-08T08:04:02;8.47;;;7.77;;
6436;SDS011;3251;53.550;9.918;2023-05-08T08:06:28;9.67;;;8.77;;
6436;SDS011;3251;53.550;9.918;2023-05-08T08:08:54;7.20;;;5.07;;
6436;SDS011;3251;53.550;9.918;2023-05-08T08:11:20;9.60;;;7.40;;
6436;SDS011;3251;53.550;9.918;2023-05-08T08:13:47;9.50;;;6.47;;
6436;SDS011;3251;53.550;9.918;2023-05-08T08:16:13;8.87;;;7.97;;
6436;SDS011;3251;53.550;9.918;2023-05-08T08:18:39;6.93;;;6.03;;
6436;SDS011;3251;53.550;9.918;2023-05-08T08:21:05;10.63;;;6.57;;
6436;SDS011;3251;53.550;9.918;2023-05-08T08:23:34;7.37;;;6.67;;
6436;SDS011;3251;53.550;9.918;2023-05-08T08:26:00;6.10;;;5.50;;
6436;SDS011;3251;53.550;9.918;2023-05-08T08:28:26;7.93;;;7.20;;
6436;SDS011;3251;53.550;9.918;2023-05-08T08:30:53;10.90;;;7.60;;
6436;SDS011;3251;53.550;9.918;2023-05-08T08:33:19;14.53;;;6.60;;
6436;SDS011;3251;53.550;9.918;2023-05-08T08:35:45;7.77;;;6.80;;
6436;SDS011;3251;53.550;9.918;2023-05-08T08:38:11;8.43;;;7.27;;
6436;SDS011;3251;53.550;9.918;2023-05-08T08:40:41;9.80;;;7.60;;
6436;SDS011;3251;53.550;9.918;2023-05-08T08:43:08;13.30;;;8.60;;
6436;SDS011;3251;53.550;9.918;2023-05-08T08:45:37;15.20;;;9.80;;
6436;SDS011;3251;53.550;9.918;2023-05-08T08:48:04;7.23;;;6.53;;
6436;SDS011;3251;53.550;9.918;2023-05-08T08:50:31;8.40;;;7.30;;
6436;SDS011;3251;53.550;9.918;2023-05-08T08:55:23;7.40;;;6.73;;
6436;SDS011;3251;53.550;9.918;2023-05-08T09:00:16;7.40;;;6.80;;
6436;SDS011;3251;53.550;9.918;2023-05-08T09:02:43;14.67;;;9.13;;
6436;SDS011;3251;53.550;9.918;2023-05-08T09:05:09;17.90;;;8.07;;
6436;SDS011;3251;53.550;9.918;2023-05-08T09:07:36;12.20;;;10.90;;
6436;SDS011;3251;53.550;9.918;2023-05-08T09:10:04;17.03;;;10.90;;
6436;SDS011;3251;53.550;9.918;2023-05-08T09:12:31;12.97;;;8.43;;
6436;SDS011;3251;53.550;9.918;2023-05-08T09:14:57;12.00;;;8.40;;
6436;SDS011;3251;53.550;9.918;2023-05-08T09:17:23;8.70;;;7.57;;
6436;SDS011;3251;53.550;9.918;2023-05-08T09:19:50;8.77;;;7.83;;
6436;SDS011;3251;53.550;9.918;2023-05-08T09:22:16;8.80;;;7.37;;
6436;SDS011;3251;53.550;9.918;2023-05-08T09:24:55;11.00;;;8.43;;
6436;SDS011;3251;53.550;9.918;2023-05-08T09:27:22;10.43;;;8.10;;
6436;SDS011;3251;53.550;9.918;2023-05-08T09:29:59;8.37;;;7.57;;
6436;SDS011;3251;53.550;9.918;2023-05-08T09:32:26;9.70;;;7.90;;
6436;SDS011;3251;53.550;9.918;2023-05-08T09:34:52;8.87;;;7.17;;
6436;SDS011;3251;53.550;9.918;2023-05-08T09:37:19;12.03;;;8.03;;
6436;SDS011;3251;53.550;9.918;2023-05-08T09:39:45;7.50;;;6.27;;
6436;SDS011;3251;53.550;9.918;2023-05-08T09:42:12;10.20;;;7.70;;
6436;SDS011;3251;53.550;9.918;2023-05-08T09:44:45;7.40;;;6.80;;
6436;SDS011;3251;53.550;9.918;2023-05-08T09:47:12;5.93;;;5.43;;
6436;SDS011;3251;53.550;9.918;2023-05-08T09:49:39;8.63;;;6.90;;
6436;SDS011;3251;53.550;9.918;2023-05-08T09:52:05;14.60;;;6.83;;
6436;SDS011;3251;53.550;9.918;2023-05-08T09:54:32;8.67;;;6.93;;
6436;SDS011;3251;53.550;9.918;2023-05-08T09:56:58;7.87;;;7.07;;
6436;SDS011;3251;53.550;9.918;2023-05-08T09:59:26;7.23;;;6.00;;
6436;SDS011;3251;53.550;9.918;2023-05-08T10:01:52;6.40;;;5.90;;
6436;SDS011;3251;53.550;9.918;2023-05-08T10:06:58;7.10;;;6.37;;
6436;SDS011;3251;53.550;9.918;2023-05-08T10:09:24;8.20;;;5.77;;
6436;SDS011;3251;53.550;9.918;2023-05-08T10:11:51;7.80;;;5.80;;
6436;SDS011;3251;53.550;9.918;2023-05-08T10:14:18;8.70;;;6.43;;
6436;SDS011;3251;53.550;9.918;2023-05-08T10:16:45;10.40;;;7.93;;
6436;SDS011;3251;53.550;9.918;2023-05-08T10:19:16;7.77;;;7.07;;
6436;SDS011;3251;53.550;9.918;2023-05-08T10:21:47;5.20;;;4.80;;
6436;SDS011;3251;53.550;9.918;2023-05-08T10:24:14;5.67;;;5.13;;
6436;SDS011;3251;53.550;9.918;2023-05-08T10:26:56;6.03;;;5.43;;
6436;SDS011;3251;53.550;9.918;2023-05-08T10:29:33;6.57;;;5.97;;
6436;SDS011;3251;53.550;9.918;2023-05-08T10:32:07;7.10;;;5.70;;
6436;SDS011;3251;53.550;9.918;2023-05-08T10:34:34;5.37;;;4.90;;
6436;SDS011;3251;53.550;9.918;2023-05-08T10:37:04;7.03;;;5.20;;
6436;SDS011;3251;53.550;9.918;2023-05-08T10:39:32;6.80;;;5.37;;
6436;SDS011;3251;53.550;9.918;2023-05-08T10:41:59;9.33;;;6.40;;
6436;SDS011;3251;53.550;9.918;2023-05-08T10:44:25;7.50;;;5.90;;
6436;SDS011;3251;53.550;9.918;2023-05-08T10:49:38;6.17;;;5.40;;
6436;SDS011;3251;53.550;9.918;2023-05-08T10:57:08;11.53;;;4.77;;
6436;SDS011;3251;53.550;9.918;2023-05-08T10:59:35;7.30;;;4.90;;
6436;SDS011;3251;53.550;9.918;2023-05-08T11:02:05;5.20;;;4.70;;
6436;SDS011;3251;53.550;9.918;2023-05-08T11:04:32;6.47;;;5.67;;
6436;SDS011;3251;53.550;9.918;2023-05-08T11:06:58;11.83;;;4.90;;
6436;SDS011;3251;53.550;9.918;2023-05-08T11:09:28;5.40;;;4.90;;
6436;SDS011;3251;53.550;9.918;2023-05-08T11:12:00;5.00;;;4.50;;
6436;SDS011;3251;53.550;9.918;2023-05-08T11:14:28;4.10;;;3.47;;
6436;SDS011;3251;53.550;9.918;2023-05-08T11:19:21;5.17;;;4.00;;
6436;SDS011;3251;53.550;9.918;2023-05-08T11:24:33;3.53;;;3.23;;
6436;SDS011;3251;53.550;9.918;2023-05-08T11:27:00;5.47;;;3.60;;
6436;SDS011;3251;53.550;9.918;2023-05-08T11:29:27;21.93;;;3.57;;
6436;SDS011;3251;53.550;9.918;2023-05-08T11:31:53;4.60;;;4.17;;
6436;SDS011;3251;53.550;9.918;2023-05-08T11:37:07;4.77;;;4.47;;
6436;SDS011;3251;53.550;9.918;2023-05-08T11:39:34;4.60;;;4.20;;
6436;SDS011;3251;53.550;9.918;2023-05-08T11:44:45;4.57;;;4.30;;
6436;SDS011;3251;53.550;9.918;2023-05-08T11:47:11;5.57;;;3.83;;
6436;SDS011;3251;53.550;9.918;2023-05-08T11:49:42;10.30;;;4.83;;
6436;SDS011;3251;53.550;9.918;2023-05-08T11:52:08;5.83;;;4.10;;
6436;SDS011;3251;53.550;9.918;2023-05-08T11:54:35;5.73;;;5.20;;
6436;SDS011;3251;53.550;9.918;2023-05-08T11:57:01;4.77;;;3.50;;
6436;SDS011;3251;53.550;9.918;2023-05-08T11:59:27;10.30;;;5.77;;
6436;SDS011;3251;53.550;9.918;2023-05-08T12:01:53;7.23;;;4.67;;
6436;SDS011;3251;53.550;9.918;2023-05-08T12:04:19;11.43;;;5.40;;
6436;SDS011;3251;53.550;9.918;2023-05-08T12:06:46;3.13;;;2.80;;
6436;SDS011;3251;53.550;9.918;2023-05-08T12:09:16;3.37;;;3.07;;
6436;SDS011;3251;53.550;9.918;2023-05-08T12:11:44;3.17;;;2.90;;
6436;SDS011;3251;53.550;9.918;2023-05-08T12:14:11;4.13;;;3.80;;
6436;SDS011;3251;53.550;9.918;2023-05-08T12:16:38;6.53;;;4.60;;
6436;SDS011;3251;53.550;9.918;2023-05-08T12:19:08;4.10;;;3.00;;
6436;SDS011;3251;53.550;9.918;2023-05-08T12:21:34;5.03;;;3.40;;
6436;SDS011;3251;53.550;9.918;2023-05-08T12:24:04;2.57;;;2.47;;
6436;SDS011;3251;53.550;9.918;2023-05-08T12:26:34;4.33;;;4.00;;
6436;SDS011;3251;53.550;9.918;2023-05-08T12:29:03;3.23;;;2.93;;
6436;SDS011;3251;53.550;9.918;2023-05-08T12:31:30;3.20;;;3.00;;
6436;SDS011;3251;53.550;9.918;2023-05-08T12:33:56;3.27;;;2.93;;
6436;SDS011;3251;53.550;9.918;2023-05-08T12:36:23;2.60;;;2.50;;
6436;SDS011;3251;53.550;9.918;2023-05-08T12:38:49;3.80;;;3.60;;
6436;SDS011;3251;53.550;9.918;2023-05-08T12:41:22;8.10;;;4.43;;
6436;SDS011;3251;53.550;9.918;2023-05-08T12:43:48;3.07;;;2.87;;
6436;SDS011;3251;53.550;9.918;2023-05-08T12:46:14;10.27;;;4.50;;
6436;SDS011;3251;53.550;9.918;2023-05-08T12:48:41;3.43;;;3.23;;
6436;SDS011;3251;53.550;9.918;2023-05-08T12:51:09;10.00;;;4.70;;
6436;SDS011;3251;53.550;9.918;2023-05-08T12:53:36;14.90;;;4.67;;
6436;SDS011;3251;53.550;9.918;2023-05-08T12:56:02;4.00;;;3.53;;
6436;SDS011;3251;53.550;9.918;2023-05-08T12:58:30;3.57;;;3.27;;
6436;SDS011;3251;53.550;9.918;2023-05-08T13:01:06;3.67;;;3.37;;
6436;SDS011;3251;53.550;9.918;2023-05-08T13:03:34;3.90;;;3.50;;
6436;SDS011;3251;53.550;9.918;2023-05-08T13:06:00;4.03;;;3.53;;
6436;SDS011;3251;53.550;9.918;2023-05-08T13:08:30;8.03;;;4.33;;
6436;SDS011;3251;53.550;9.918;2023-05-08T13:10:57;3.60;;;3.27;;
6436;SDS011;3251;53.550;9.918;2023-05-08T13:13:24;3.50;;;3.20;;
6436;SDS011;3251;53.550;9.918;2023-05-08T13:15:51;3.90;;;3.60;;
6436;SDS011;3251;53.550;9.918;2023-05-08T13:18:18;3.50;;;2.33;;
6436;SDS011;3251;53.550;9.918;2023-05-08T13:20:44;4.37;;;3.07;;
6436;SDS011;3251;53.550;9.918;2023-05-08T13:23:11;5.60;;;3.60;;
6436;SDS011;3251;53.550;9.918;2023-05-08T13:25:38;18.53;;;3.50;;
6436;SDS011;3251;53.550;9.918;2023-05-08T13:28:04;2.90;;;2.80;;
6436;SDS011;3251;53.550;9.918;2023-05-08T13:30:31;2.90;;;2.67;;
6436;SDS011;3251;53.550;9.918;2023-05-08T13:32:57;5.03;;;3.50;;
6436;SDS011;3251;53.550;9.918;2023-05-08T13:35:24;2.70;;;2.60;;
6436;SDS011;3251;53.550;9.918;2023-05-08T13:37:52;2.87;;;2.67;;
6436;SDS011;3251;53.550;9.918;2023-05-08T13:40:18;3.23;;;2.20;;
6436;SDS011;3251;53.550;9.918;2023-05-08T13:42:44;4.33;;;2.90;;
6436;SDS011;3251;53.550;9.918;2023-05-08T13:45:11;3.50;;;3.13;;
6436;SDS011;3251;53.550;9.918;2023-05-08T13:47:39;2.83;;;2.63;;
6436;SDS011;3251;53.550;9.918;2023-05-08T13:50:06;2.80;;;2.60;;
6436;SDS011;3251;53.550;9.918;2023-05-08T13:52:32;7.57;;;3.20;;
6436;SDS011;3251;53.550;9.918;2023-05-08T13:54:58;4.20;;;3.67;;
6436;SDS011;3251;53.550;9.918;2023-05-08T13:57:25;3.00;;;2.80;;
6436;SDS011;3251;53.550;9.918;2023-05-08T13:59:51;2.63;;;2.43;;
6436;SDS011;3251;53.550;9.918;2023-05-08T14:02:17;4.70;;;3.03;;
6436;SDS011;3251;53.550;9.918;2023-05-08T14:04:43;3.90;;;3.47;;
6436;SDS011;3251;53.550;9.918;2023-05-08T14:07:09;3.57;;;3.23;;
6436;SDS011;3251;53.550;9.918;2023-05-08T14:09:35;4.50;;;3.47;;
6436;SDS011;3251;53.550;9.918;2023-05-08T14:12:02;7.20;;;2.53;;
6436;SDS011;3251;53.550;9.918;2023-05-08T14:14:28;5.07;;;3.23;;
6436;SDS011;3251;53.550;9.918;2023-05-08T14:16:54;6.57;;;4.27;;
6436;SDS011;3251;53.550;9.918;2023-05-08T14:19:20;14.30;;;2.70;;
6436;SDS011;3251;53.550;9.918;2023-05-08T14:21:46;3.10;;;2.40;;
6436;SDS011;3251;53.550;9.918;2023-05-08T14:24:13;2.80;;;2.60;;
6436;SDS011;3251;53.550;9.918;2023-05-08T14:26:39;5.53;;;3.40;;
6436;SDS011;3251;53.550;9.918;2023-05-08T14:29:05;2.00;;;1.90;;
6436;SDS011;3251;53.550;9.918;2023-05-08T14:31:31;2.57;;;2.00;;
6436;SDS011;3251;53.550;9.918;2023-05-08T14:33:57;2.60;;;2.40;;
6436;SDS011;3251;53.550;9.918;2023-05-08T14:36:23;2.30;;;2.10;;
6436;SDS011;3251;53.550;9.918;2023-05-08T14:38:49;8.93;;;2.50;;
6436;SDS011;3251;53.550;9.918;2023-05-08T14:41:15;3.83;;;2.43;;
6436;SDS011;3251;53.550;9.918;2023-05-08T14:43:42;5.07;;;3.97;;
6436;SDS011;3251;53.550;9.918;2023-05-08T14:46:08;8.13;;;3.17;;
6436;SDS011;3251;53.550;9.918;2023-05-08T14:48:34;3.70;;;3.40;;
6436;SDS011;3251;53.550;9.918;2023-05-08T14:51:00;6.23;;;2.57;;
6436;SDS011;3251;53.550;9.918;2023-05-08T14:53:26;3.23;;;2.77;;
6436;SDS011;3251;53.550;9.918;2023-05-08T14:55:53;4.13;;;3.73;;
6436;SDS011;3251;53.550;9.918;2023-05-08T14:58:19;12.73;;;2.50;;
6436;SDS011;3251;53.550;9.918;2023-05-08T15:00:45;5.77;;;4.13;;
6436;SDS011;3251;53.550;9.918;2023-05-08T15:03:11;4.93;;;2.90;;
6436;SDS011;3251;53.550;9.918;2023-05-08T15:05:37;4.23;;;3.13;;
6436;SDS011;3251;53.550;9.918;2023-05-08T15:08:03;13.80;;;5.13;;
6436;SDS011;3251;53.550;9.918;2023-05-08T15:10:30;2.43;;;1.90;;
6436;SDS011;3251;53.550;9.918;2023-05-08T15:12:56;5.90;;;2.60;;
6436;SDS011;3251;53.550;9.918;2023-05-08T15:15:22;8.33;;;2.80;;
6436;SDS011;3251;53.550;9.918;2023-05-08T15:17:48;2.50;;;2.33;;
6436;SDS011;3251;53.550;9.918;2023-05-08T15:20:14;4.13;;;2.90;;
6436;SDS011;3251;53.550;9.918;2023-05-08T15:22:40;2.90;;;2.37;;
6436;SDS011;3251;53.550;9.918;2023-05-08T15:25:06;2.37;;;2.27;;
6436;SDS011;3251;53.550;9.918;2023-05-08T15:27:33;5.53;;;1.87;;
6436;SDS011;3251;53.550;9.918;2023-05-08T15:29:59;2.97;;;2.03;;
6436;SDS011;3251;53.550;9.918;2023-05-08T15:32:25;3.00;;;1.90;;
6436;SDS011;3251;53.550;9.918;2023-05-08T15:34:51;2.27;;;2.17;;
6436;SDS011;3251;53.550;9.918;2023-05-08T15:37:17;5.70;;;4.50;;
6436;SDS011;3251;53.550;9.918;2023-05-08T15:39:43;1.90;;;1.80;;
6436;SDS011;3251;53.550;9.918;2023-05-08T15:42:10;1.80;;;1.70;;
6436;SDS011;3251;53.550;9.918;2023-05-08T15:44:36;2.50;;;2.30;;
6436;SDS011;3251;53.550;9.918;2023-05-08T15:47:02;3.30;;;1.80;;
6436;SDS011;3251;53.550;9.918;2023-05-08T15:49:28;2.10;;;1.63;;
6436;SDS011;3251;53.550;9.918;2023-05-08T15:51:54;2.50;;;2.40;;
6436;SDS011;3251;53.550;9.918;2023-05-08T15:54:20;5.73;;;2.00;;
6436;SDS011;3251;53.550;9.918;2023-05-08T15:56:47;2.30;;;2.10;;
6436;SDS011;3251;53.550;9.918;2023-05-08T15:59:13;18.80;;;3.47;;
6436;SDS011;3251;53.550;9.918;2023-05-08T16:01:39;7.77;;;3.10;;
6436;SDS011;3251;53.550;9.918;2023-05-08T16:04:08;7.07;;;3.03;;
6436;SDS011;3251;53.550;9.918;2023-05-08T16:06:35;4.53;;;2.67;;
6436;SDS011;3251;53.550;9.918;2023-05-08T16:09:01;4.50;;;2.57;;
6436;SDS011;3251;53.550;9.918;2023-05-08T16:11:30;8.43;;;2.17;;
6436;SDS011;3251;53.550;9.918;2023-05-08T16:13:57;2.60;;;1.73;;
6436;SDS011;3251;53.550;9.918;2023-05-08T16:16:27;6.10;;;1.37;;
6436;SDS011;3251;53.550;9.918;2023-05-08T16:18:53;9.83;;;2.20;;
6436;SDS011;3251;53.550;9.918;2023-05-08T16:21:19;2.03;;;1.40;;
6436;SDS011;3251;53.550;9.918;2023-05-08T16:23:45;4.03;;;1.90;;
6436;SDS011;3251;53.550;9.918;2023-05-08T16:26:11;3.97;;;2.13;;
6436;SDS011;3251;53.550;9.918;2023-05-08T16:28:38;5.03;;;1.90;;
6436;SDS011;3251;53.550;9.918;2023-05-08T16:31:04;3.00;;;1.70;;
6436;SDS011;3251;53.550;9.918;2023-05-08T16:33:31;2.50;;;1.97;;
6436;SDS011;3251;53.550;9.918;2023-05-08T16:35:57;3.37;;;1.90;;
6436;SDS011;3251;53.550;9.918;2023-05-08T16:38:24;2.20;;;1.67;;
6436;SDS011;3251;53.550;9.918;2023-05-08T16:40:50;2.33;;;1.70;;
6436;SDS011;3251;53.550;9.918;2023-05-08T16:43:16;2.10;;;1.90;;
6436;SDS011;3251;53.550;9.918;2023-05-08T16:45:42;1.70;;;1.60;;
6436;SDS011;3251;53.550;9.918;2023-05-08T16:48:08;2.10;;;2.00;;
6436;SDS011;3251;53.550;9.918;2023-05-08T16:50:34;2.27;;;2.07;;
6436;SDS011;3251;53.550;9.918;2023-05-08T16:53:00;6.83;;;1.90;;
6436;SDS011;3251;53.550;9.918;2023-05-08T16:55:27;1.50;;;1.40;;
6436;SDS011;3251;53.550;9.918;2023-05-08T16:57:53;2.43;;;2.23;;
6436;SDS011;3251;53.550;9.918;2023-05-08T17:00:20;2.80;;;1.97;;
6436;SDS011;3251;53.550;9.918;2023-05-08T17:02:46;4.23;;;1.40;;
6436;SDS011;3251;53.550;9.918;2023-05-08T17:05:13;3.53;;;2.37;;
6436;SDS011;3251;53.550;9.918;2023-05-08T17:07:39;1.73;;;1.63;;
6436;SDS011;3251;53.550;9.918;2023-05-08T17:10:05;6.60;;;1.47;;
6436;SDS011;3251;53.550;9.918;2023-05-08T17:12:32;4.03;;;1.70;;
6436;SDS011;3251;53.550;9.918;2023-05-08T17:14:58;1.97;;;1.50;;
6436;SDS011;3251;53.550;9.918;2023-05-08T17:17:24;4.30;;;1.80;;
6436;SDS011;3251;53.550;9.918;2023-05-08T17:19:50;8.23;;;2.40;;
6436;SDS011;3251;53.550;9.918;2023-05-08T17:22:16;16.93;;;1.60;;
6436;SDS011;3251;53.550;9.918;2023-05-08T17:24:44;4.47;;;2.17;;
6436;SDS011;3251;53.550;9.918;2023-05-08T17:27:11;2.00;;;1.90;;
6436;SDS011;3251;53.550;9.918;2023-05-08T17:29:37;1.90;;;1.80;;
6436;SDS011;3251;53.550;9.918;2023-05-08T17:32:04;8.37;;;1.67;;
6436;SDS011;3251;53.550;9.918;2023-05-08T17:34:30;7.60;;;2.70;;
6436;SDS011;3251;53.550;9.918;2023-05-08T17:36:56;6.70;;;4.70;;
6436;SDS011;3251;53.550;9.918;2023-05-08T17:39:22;5.00;;;2.83;;
6436;SDS011;3251;53.550;9.918;2023-05-08T17:41:48;4.00;;;2.90;;
6436;SDS011;3251;53.550;9.918;2023-05-08T17:44:15;10.80;;;2.13;;
6436;SDS011;3251;53.550;9.918;2023-05-08T17:46:41;2.63;;;2.20;;
6436;SDS011;3251;53.550;9.918;2023-05-08T17:49:08;6.73;;;2.50;;
6436;SDS011;3251;53.550;9.918;2023-05-08T17:51:34;11.47;;;1.90;;
6436;SDS011;3251;53.550;9.918;2023-05-08T17:54:00;3.87;;;1.93;;
6436;SDS011;3251;53.550;9.918;2023-05-08T17:56:26;1.90;;;1.80;;
6436;SDS011;3251;53.550;9.918;2023-05-08T17:58:52;3.30;;;3.03;;
6436;SDS011;3251;53.550;9.918;2023-05-08T18:01:19;9.33;;;6.87;;
6436;SDS011;3251;53.550;9.918;2023-05-08T18:03:46;7.17;;;2.30;;
6436;SDS011;3251;53.550;9.918;2023-05-08T18:06:15;3.93;;;2.53;;
6436;SDS011;3251;53.550;9.918;2023-05-08T18:08:42;3.73;;;3.10;;
6436;SDS011;3251;53.550;9.918;2023-05-08T18:11:21;9.13;;;2.90;;
6436;SDS011;3251;53.550;9.918;2023-05-08T18:13:48;6.10;;;1.90;;
6436;SDS011;3251;53.550;9.918;2023-05-08T18:16:15;4.70;;;2.77;;
6436;SDS011;3251;53.550;9.918;2023-05-08T18:18:41;8.20;;;2.67;;
6436;SDS011;3251;53.550;9.918;2023-05-08T18:21:07;7.47;;;1.50;;
6436;SDS011;3251;53.550;9.918;2023-05-08T18:23:34;3.73;;;2.30;;
6436;SDS011;3251;53.550;9.918;2023-05-08T18:26:00;3.93;;;1.90;;
6436;SDS011;3251;53.550;9.918;2023-05-08T18:28:26;1.50;;;1.40;;
6436;SDS011;3251;53.550;9.918;2023-05-08T18:30:52;2.03;;;1.73;;
6436;SDS011;3251;53.550;9.918;2023-05-08T18:33:18;2.70;;;2.10;;
6436;SDS011;3251;53.550;9.918;2023-05-08T18:35:45;2.70;;;1.70;;
6436;SDS011;3251;53.550;9.918;2023-05-08T18:38:11;5.53;;;2.17;;
6436;SDS011;3251;53.550;9.918;2023-05-08T18:40:37;5.70;;;2.33;;
6436;SDS011;3251;53.550;9.918;2023-05-08T18:43:03;2.80;;;2.10;;
6436;SDS011;3251;53.550;9.918;2023-05-08T18:45:29;1.63;;;1.50;;
6436;SDS011;3251;53.550;9.918;2023-05-08T18:47:57;10.63;;;1.83;;
6436;SDS011;3251;53.550;9.918;2023-05-08T18:50:23;5.60;;;2.30;;
6436;SDS011;3251;53.550;9.918;2023-05-08T18:52:50;3.20;;;2.30;;
6436;SDS011;3251;53.550;9.918;2023-05-08T18:55:16;8.80;;;2.17;;
6436;SDS011;3251;53.550;9.918;2023-05-08T18:57:42;2.50;;;2.30;;
6436;SDS011;3251;53.550;9.918;2023-05-08T19:00:08;3.97;;;2.40;;
6436;SDS011;3251;53.550;9.918;2023-05-08T19:02:34;7.07;;;2.20;;
6436;SDS011;3251;53.550;9.918;2023-05-08T19:05:01;3.80;;;2.13;;
6436;SDS011;3251;53.550;9.918;2023-05-08T19:07:27;3.50;;;1.40;;
6436;SDS011;3251;53.550;9.918;2023-05-08T19:09:53;17.80;;;9.43;;
6436;SDS011;3251;53.550;9.918;2023-05-08T19:12:19;6.33;;;3.77;;
6436;SDS011;3251;53.550;9.918;2023-05-08T19:14:46;7.97;;;4.23;;
6436;SDS011;3251;53.550;9.918;2023-05-08T19:17:13;5.30;;;2.60;;
6436;SDS011;3251;53.550;9.918;2023-05-08T19:19:39;2.87;;;2.67;;
6436;SDS011;3251;53.550;9.918;2023-05-08T19:22:05;8.60;;;3.20;;
6436;SDS011;3251;53.550;9.918;2023-05-08T19:24:31;3.57;;;3.00;;
6436;SDS011;3251;53.550;9.918;2023-05-08T19:26:58;6.10;;;2.20;;
6436;SDS011;3251;53.550;9.918;2023-05-08T19:29:24;4.67;;;2.00;;
6436;SDS011;3251;53.550;9.918;2023-05-08T19:31:50;6.30;;;2.43;;
6436;SDS011;3251;53.550;9.918;2023-05-08T19:34:16;4.87;;;2.77;;
6436;SDS011;3251;53.550;9.918;2023-05-08T19:36:42;5.40;;;3.00;;
6436;SDS011;3251;53.550;9.918;2023-05-08T19:39:09;2.60;;;1.80;;
6436;SDS011;3251;53.550;9.918;2023-05-08T19:41:35;2.17;;;1.90;;
6436;SDS011;3251;53.550;9.918;2023-05-08T19:44:01;8.70;;;2.57;;
6436;SDS011;3251;53.550;9.918;2023-05-08T19:46:27;4.03;;;3.00;;
6436;SDS011;3251;53.550;9.918;2023-05-08T19:48:53;2.80;;;2.60;;
6436;SDS011;3251;53.550;9.918;2023-05-08T19:51:19;3.90;;;2.70;;
6436;SDS011;3251;53.550;9.918;2023-05-08T19:53:45;3.40;;;2.03;;
6436;SDS011;3251;53.550;9.918;2023-05-08T19:56:11;3.13;;;2.83;;
6436;SDS011;3251;53.550;9.918;2023-05-08T19:58:37;4.63;;;1.93;;
6436;SDS011;3251;53.550;9.918;2023-05-08T20:01:04;2.13;;;2.03;;
6436;SDS011;3251;53.550;9.918;2023-05-08T20:03:30;2.17;;;2.07;;
6436;SDS011;3251;53.550;9.918;2023-05-08T20:05:57;5.23;;;2.40;;
6436;SDS011;3251;53.550;9.918;2023-05-08T20:08:23;3.27;;;2.70;;
6436;SDS011;3251;53.550;9.918;2023-05-08T20:10:49;6.70;;;2.87;;
6436;SDS011;3251;53.550;9.918;2023-05-08T20:13:15;4.93;;;2.40;;
6436;SDS011;3251;53.550;9.918;2023-05-08T20:15:42;5.90;;;2.30;;
6436;SDS011;3251;53.550;9.918;2023-05-08T20:18:08;6.03;;;2.47;;
6436;SDS011;3251;53.550;9.918;2023-05-08T20:20:34;8.43;;;3.30;;
6436;SDS011;3251;53.550;9.918;2023-05-08T20:23:00;4.43;;;2.50;;
6436;SDS011;3251;53.550;9.918;2023-05-08T20:25:27;11.20;;;2.17;;
6436;SDS011;3251;53.550;9.918;2023-05-08T20:27:53;4.87;;;2.23;;
6436;SDS011;3251;53.550;9.918;2023-05-08T20:30:19;9.90;;;2.30;;
6436;SDS011;3251;53.550;9.918;2023-05-08T20:32:45;4.77;;;2.07;;
6436;SDS011;3251;53.550;9.918;2023-05-08T20:35:12;4.13;;;2.30;;
6436;SDS011;3251;53.550;9.918;2023-05-08T20:37:46;4.60;;;2.13;;
6436;SDS011;3251;53.550;9.918;2023-05-08T20:40:12;3.73;;;2.50;;
6436;SDS011;3251;53.550;9.918;2023-05-08T20:42:38;4.33;;;2.40;;
6436;SDS011;3251;53.550;9.918;2023-05-08T20:45:06;2.70;;;2.43;;
6436;SDS011;3251;53.550;9.918;2023-05-08T20:47:32;4.13;;;2.20;;
6436;SDS011;3251;53.550;9.918;2023-05-08T20:49:58;6.20;;;3.00;;
6436;SDS011;3251;53.550;9.918;2023-05-08T20:52:24;14.93;;;2.10;;
6436;SDS011;3251;53.550;9.918;2023-05-08T20:54:51;16.13;;;2.77;;
6436;SDS011;3251;53.550;9.918;2023-05-08T20:57:17;9.00;;;3.30;;
6436;SDS011;3251;53.550;9.918;2023-05-08T20:59:43;5.57;;;2.70;;
6436;SDS011;3251;53.550;9.918;2023-05-08T21:02:11;2.90;;;2.27;;
6436;SDS011;3251;53.550;9.918;2023-05-08T21:04:37;5.50;;;3.20;;
6436;SDS011;3251;53.550;9.918;2023-05-08T21:07:04;3.70;;;2.80;;
6436;SDS011;3251;53.550;9.918;2023-05-08T21:09:30;8.90;;;3.93;;
6436;SDS011;3251;53.550;9.918;2023-05-08T21:11:56;4.50;;;2.30;;
6436;SDS011;3251;53.550;9.918;2023-05-08T21:14:25;7.10;;;4.73;;
6436;SDS011;3251;53.550;9.918;2023-05-08T21:16:52;8.10;;;3.97;;
6436;SDS011;3251;53.550;9.918;2023-05-08T21:19:18;5.33;;;3.07;;